dewdew7's R^3 replays

1 - 50 | 51 - 100 | 101 - 150 | 151 - 200 | 201 - 250 | 251 - 300 | 301 - 304
Song Results (Perf-Good-Avg-Miss-Boo) Max Combo Score Date
Reflective Moment 1,314 - 31 - 2 - 1 - 4 1,323 2,053,945 1/2/21
Into the Arena 1,494 - 11 - 0 - 0 - 1 1,505 2,329,705 1/2/21
Stage 1 (Teenage Mutant Ninja Turtles 2) 1,991 - 35 - 1 - 0 - 5 2,027 3,131,630 12/21/20
Nintendon't 1,153 - 0 - 0 - 0 - 0 1,153 1,787,150 12/21/20
Son Of Robot 1,804 - 47 - 0 - 1 - 17 1,157 2,161,475 12/20/20
Harry Potter Techno Remix 607 - 0 - 0 - 0 - 0 607 940,850 12/19/20
Rainbow Tylenol 900 - 3 - 0 - 0 - 0 903 1,398,825 12/16/20
Mathsma Attack 2,293 - 253 - 16 - 25 - 51 280 1,602,835 10/13/20
AAA 1,037 - 0 - 0 - 0 - 0 1,037 1,607,350 6/20/20
Unicron Barbeque 1,862 - 78 - 4 - 13 - 16 890 1,931,420 4/16/20
Starwolf 1,144 - 11 - 0 - 0 - 1 1,155 1,787,205 4/16/20
Tiger Rag 865 - 18 - 0 - 1 - 1 878 1,358,370 4/16/20
Lightning Strikes Again - Metal Squad 3,217 - 33 - 1 - 3 - 4 2,478 4,255,470 1/29/20
Toki 1,241 - 4 - 0 - 0 - 0 1,245 1,928,650 1/25/20
Caprice 1,280 - 19 - 1 - 0 - 3 1,300 2,009,220 1/25/20
Perfect Cherry Storm 1,035 - 31 - 4 - 2 - 4 841 1,418,295 1/22/20
rough 1,253 - 13 - 0 - 0 - 0 1,266 1,958,725 1/10/20
Old Skool 825 - 0 - 0 - 0 - 0 825 1,278,750 8/29/19
Skeletor 1,307 - 34 - 5 - 0 - 3 1,346 2,074,415 8/28/19
Destination Of The Heart 962 - 31 - 1 - 0 - 11 994 1,531,460 8/28/19
Mathsma Attack 2,463 - 96 - 8 - 20 - 17 807 2,181,950 8/28/19
Beautiful Arrhythmia 1,365 - 44 - 4 - 2 - 14 1,267 2,029,170 8/28/19
BB Revenge 2,303 - 67 - 4 - 8 - 16 640 1,922,495 8/28/19
On Conquest and Capture 270 - 0 - 0 - 0 - 0 270 418,500 8/27/19
Lamuscore 1,485 - 84 - 13 - 10 - 25 506 1,342,965 8/18/19
AVALON 1,424 - 24 - 3 - 1 - 3 983 1,772,595 8/18/19
Starwolf 1,116 - 35 - 4 - 0 - 10 1,155 1,778,445 8/15/19
carnation 1,220 - 6 - 0 - 0 - 1 1,226 1,898,630 8/11/19
Caprice 1,248 - 51 - 0 - 1 - 6 1,006 1,705,995 8/11/19
Death Moon 1,703 - 97 - 14 - 9 - 25 1,009 1,969,805 8/11/19
Holy Orders 2,655 - 84 - 6 - 13 - 11 759 2,238,430 8/11/19
Milky Blue 2,795 - 139 - 30 - 14 - 36 1,190 2,762,065 8/11/19
Epilogue 914 - 35 - 3 - 0 - 8 952 1,464,330 8/6/19
Twister 2,268 - 11 - 0 - 2 - 2 1,430 2,679,765 3/29/19
Exothermic (Overheat Remix) 1,380 - 11 - 0 - 1 - 1 808 1,569,695 3/29/19
Chronostasis 1,454 - 7 - 1 - 0 - 1 1,462 2,263,660 3/29/19
Jasmine (Camelrape Remix) 1,757 - 8 - 0 - 1 - 0 1,149 2,117,240 3/29/19
DownTemperature 879 - 9 - 0 - 0 - 3 888 1,373,865 3/25/19
October 1,554 - 10 - 0 - 0 - 0 1,564 2,421,450 3/12/19
World Tour 2004 3,932 - 7 - 0 - 1 - 1 2,813 4,977,195 3/4/19
Animus Intorqueo No. 1 616 - 0 - 0 - 0 - 0 616 954,800 3/3/19
World Tour 2004 3,930 - 8 - 0 - 2 - 1 1,459 3,622,060 3/2/19
Flounder 1,741 - 3 - 0 - 0 - 0 1,744 2,702,375 2/24/19
Dragonsbane 3,466 - 0 - 0 - 0 - 0 3,466 5,372,300 2/24/19
Holy Orders 2,522 - 188 - 14 - 34 - 40 414 1,842,230 2/24/19
Legend of Zelda Remix 279 - 15 - 0 - 0 - 2 294 451,535 2/16/19
Crow Solace 1,295 - 6 - 0 - 0 - 1 1,301 2,014,880 2/13/19
{Rose} 1,252 - 35 - 4 - 10 - 14 460 1,155,065 2/11/19
DownTemperature 874 - 14 - 0 - 0 - 0 888 1,372,550 2/11/19
Crow Solace 1,294 - 7 - 0 - 0 - 0 1,301 2,014,625 2/11/19